sensor_id;sensor_type;location;lat;lon;timestamp;pressure;altitude;pressure_sealevel;temperature;humidity
11952;BME280;6036;41.840;23.486;2022-07-09T00:00:03;90340.03;;;18.44;65.87
11952;BME280;6036;41.840;23.486;2022-07-09T00:02:28;90339.97;;;18.72;65.22
11952;BME280;6036;41.840;23.486;2022-07-09T00:04:53;90329.28;;;18.93;64.50
11952;BME280;6036;41.840;23.486;2022-07-09T00:07:19;90332.75;;;18.83;64.60
11952;BME280;6036;41.840;23.486;2022-07-09T00:09:44;90334.63;;;18.79;64.98
11952;BME280;6036;41.840;23.486;2022-07-09T00:12:10;90325.56;;;18.73;63.93
11952;BME280;6036;41.840;23.486;2022-07-09T00:14:35;90338.47;;;18.71;65.70
11952;BME280;6036;41.840;23.486;2022-07-09T00:17:01;90343.81;;;17.26;73.88
11952;BME280;6036;41.840;23.486;2022-07-09T00:19:26;90329.50;;;17.45;74.35
11952;BME280;6036;41.840;23.486;2022-07-09T00:21:52;90323.84;;;17.53;72.79
11952;BME280;6036;41.840;23.486;2022-07-09T00:24:17;90316.25;;;18.15;70.63
11952;BME280;6036;41.840;23.486;2022-07-09T00:26:43;90308.97;;;18.44;70.69
11952;BME280;6036;41.840;23.486;2022-07-09T00:29:08;90310.38;;;18.88;68.01
11952;BME280;6036;41.840;23.486;2022-07-09T00:31:34;90313.28;;;19.07;67.13
11952;BME280;6036;41.840;23.486;2022-07-09T00:33:59;90316.00;;;18.97;67.37
11952;BME280;6036;41.840;23.486;2022-07-09T00:36:24;90314.06;;;19.04;67.09
11952;BME280;6036;41.840;23.486;2022-07-09T00:38:50;90320.97;;;18.84;67.62
11952;BME280;6036;41.840;23.486;2022-07-09T00:41:15;90312.72;;;18.64;68.46
11952;BME280;6036;41.840;23.486;2022-07-09T00:43:48;90311.56;;;18.72;67.57
11952;BME280;6036;41.840;23.486;2022-07-09T00:46:14;90315.59;;;19.05;66.16
11952;BME280;6036;41.840;23.486;2022-07-09T00:48:39;90320.31;;;18.66;66.97
11952;BME280;6036;41.840;23.486;2022-07-09T00:51:05;90314.81;;;19.05;66.21
11952;BME280;6036;41.840;23.486;2022-07-09T00:53:30;90317.75;;;19.24;66.86
11952;BME280;6036;41.840;23.486;2022-07-09T00:55:56;90313.16;;;19.28;66.38
11952;BME280;6036;41.840;23.486;2022-07-09T00:58:23;90321.50;;;19.30;66.69
11952;BME280;6036;41.840;23.486;2022-07-09T01:00:49;90323.81;;;19.25;66.10
11952;BME280;6036;41.840;23.486;2022-07-09T01:03:14;90324.53;;;19.32;65.75
11952;BME280;6036;41.840;23.486;2022-07-09T01:05:40;90316.16;;;19.34;66.41
11952;BME280;6036;41.840;23.486;2022-07-09T01:08:07;90322.16;;;19.48;66.00
11952;BME280;6036;41.840;23.486;2022-07-09T01:10:34;90318.03;;;19.48;65.07
11952;BME280;6036;41.840;23.486;2022-07-09T01:13:00;90309.31;;;19.43;64.98
11952;BME280;6036;41.840;23.486;2022-07-09T01:15:27;90309.44;;;19.22;65.34
11952;BME280;6036;41.840;23.486;2022-07-09T01:17:52;90308.66;;;19.22;64.81
11952;BME280;6036;41.840;23.486;2022-07-09T01:20:28;90313.88;;;19.36;64.19
11952;BME280;6036;41.840;23.486;2022-07-09T01:22:57;90306.38;;;19.24;64.24
11952;BME280;6036;41.840;23.486;2022-07-09T01:25:37;90304.16;;;19.15;64.51
11952;BME280;6036;41.840;23.486;2022-07-09T01:28:04;90301.31;;;18.78;65.47
11952;BME280;6036;41.840;23.486;2022-07-09T01:30:32;90301.50;;;18.22;67.69
11952;BME280;6036;41.840;23.486;2022-07-09T01:32:58;90298.84;;;18.11;68.58
11952;BME280;6036;41.840;23.486;2022-07-09T01:35:23;90304.09;;;18.39;67.63
11952;BME280;6036;41.840;23.486;2022-07-09T01:37:49;90307.50;;;18.36;67.46
11952;BME280;6036;41.840;23.486;2022-07-09T01:40:15;90307.84;;;18.56;66.50
11952;BME280;6036;41.840;23.486;2022-07-09T01:42:41;90307.53;;;18.26;67.68
11952;BME280;6036;41.840;23.486;2022-07-09T01:45:06;90317.38;;;18.22;67.97
11952;BME280;6036;41.840;23.486;2022-07-09T01:47:32;90306.44;;;17.98;68.76
11952;BME280;6036;41.840;23.486;2022-07-09T01:49:57;90311.34;;;18.00;68.99
11952;BME280;6036;41.840;23.486;2022-07-09T01:52:24;90312.09;;;18.07;68.12
11952;BME280;6036;41.840;23.486;2022-07-09T01:54:49;90304.56;;;17.99;67.92
11952;BME280;6036;41.840;23.486;2022-07-09T01:57:15;90302.97;;;18.23;67.69
11952;BME280;6036;41.840;23.486;2022-07-09T01:59:40;90294.63;;;18.49;66.64
11952;BME280;6036;41.840;23.486;2022-07-09T02:02:06;90296.88;;;18.54;66.17
11952;BME280;6036;41.840;23.486;2022-07-09T02:04:31;90287.00;;;18.54;66.16
11952;BME280;6036;41.840;23.486;2022-07-09T02:06:57;90291.56;;;18.57;66.06
11952;BME280;6036;41.840;23.486;2022-07-09T02:09:22;90288.59;;;18.31;66.73
11952;BME280;6036;41.840;23.486;2022-07-09T02:11:48;90291.22;;;18.38;66.04
11952;BME280;6036;41.840;23.486;2022-07-09T02:14:14;90292.38;;;18.37;66.26
11952;BME280;6036;41.840;23.486;2022-07-09T02:16:40;90293.16;;;18.12;67.47
11952;BME280;6036;41.840;23.486;2022-07-09T02:19:05;90285.56;;;18.25;67.11
11952;BME280;6036;41.840;23.486;2022-07-09T02:21:32;90299.22;;;18.24;68.81
11952;BME280;6036;41.840;23.486;2022-07-09T02:23:57;90293.16;;;18.16;68.21
11952;BME280;6036;41.840;23.486;2022-07-09T02:26:27;90289.28;;;18.56;67.25
11952;BME280;6036;41.840;23.486;2022-07-09T02:28:57;90293.75;;;18.73;66.31
11952;BME280;6036;41.840;23.486;2022-07-09T02:31:23;90288.94;;;18.40;68.04
11952;BME280;6036;41.840;23.486;2022-07-09T02:33:49;90298.53;;;17.84;69.68
11952;BME280;6036;41.840;23.486;2022-07-09T02:36:14;90327.25;;;17.61;72.36
11952;BME280;6036;41.840;23.486;2022-07-09T02:38:40;90331.31;;;17.09;77.86
11952;BME280;6036;41.840;23.486;2022-07-09T02:41:05;90325.56;;;16.75;79.79
11952;BME280;6036;41.840;23.486;2022-07-09T02:43:31;90329.38;;;16.88;79.77
11952;BME280;6036;41.840;23.486;2022-07-09T02:45:56;90332.09;;;17.17;78.20
11952;BME280;6036;41.840;23.486;2022-07-09T02:48:22;90317.78;;;17.35;77.65
11952;BME280;6036;41.840;23.486;2022-07-09T02:50:52;90316.66;;;17.89;74.68
11952;BME280;6036;41.840;23.486;2022-07-09T02:53:18;90313.97;;;18.21;73.36
11952;BME280;6036;41.840;23.486;2022-07-09T02:55:44;90314.69;;;18.39;71.86
11952;BME280;6036;41.840;23.486;2022-07-09T02:58:11;90308.97;;;18.55;71.01
11952;BME280;6036;41.840;23.486;2022-07-09T03:00:37;90307.13;;;18.34;70.21
11952;BME280;6036;41.840;23.486;2022-07-09T03:03:05;90304.16;;;18.07;70.63
11952;BME280;6036;41.840;23.486;2022-07-09T03:05:30;90306.78;;;18.07;70.69
11952;BME280;6036;41.840;23.486;2022-07-09T03:07:56;90312.88;;;17.90;70.63
11952;BME280;6036;41.840;23.486;2022-07-09T03:10:21;90312.09;;;18.07;70.20
11952;BME280;6036;41.840;23.486;2022-07-09T03:12:46;90296.19;;;18.11;69.45
11952;BME280;6036;41.840;23.486;2022-07-09T03:15:12;90311.34;;;18.14;69.44
11952;BME280;6036;41.840;23.486;2022-07-09T03:17:39;90300.38;;;18.01;69.89
11952;BME280;6036;41.840;23.486;2022-07-09T03:20:05;90302.25;;;18.11;69.80
11952;BME280;6036;41.840;23.486;2022-07-09T03:22:31;90298.50;;;17.91;70.37
11952;BME280;6036;41.840;23.486;2022-07-09T03:24:56;90303.06;;;17.70;71.68
11952;BME280;6036;41.840;23.486;2022-07-09T03:27:22;90300.38;;;18.08;70.83
11952;BME280;6036;41.840;23.486;2022-07-09T03:29:47;90300.34;;;18.15;70.05
11952;BME280;6036;41.840;23.486;2022-07-09T03:32:13;90302.97;;;18.33;69.47
11952;BME280;6036;41.840;23.486;2022-07-09T03:34:39;90309.34;;;18.60;68.31
11952;BME280;6036;41.840;23.486;2022-07-09T03:37:04;90316.47;;;18.74;67.56
11952;BME280;6036;41.840;23.486;2022-07-09T03:39:30;90311.13;;;18.88;67.18
11952;BME280;6036;41.840;23.486;2022-07-09T03:41:55;90309.50;;;19.08;66.78
11952;BME280;6036;41.840;23.486;2022-07-09T03:44:21;90317.75;;;19.24;66.01
11952;BME280;6036;41.840;23.486;2022-07-09T03:46:46;90322.78;;;19.08;67.24
11952;BME280;6036;41.840;23.486;2022-07-09T03:49:11;90320.72;;;18.50;69.98
11952;BME280;6036;41.840;23.486;2022-07-09T03:51:37;90318.81;;;18.58;71.11
11952;BME280;6036;41.840;23.486;2022-07-09T03:54:03;90312.31;;;18.73;70.22
11952;BME280;6036;41.840;23.486;2022-07-09T03:56:28;90326.31;;;18.77;70.18
11952;BME280;6036;41.840;23.486;2022-07-09T03:58:54;90319.88;;;18.74;68.95
11952;BME280;6036;41.840;23.486;2022-07-09T04:01:20;90324.75;;;18.90;68.93
11952;BME280;6036;41.840;23.486;2022-07-09T04:03:45;90319.69;;;19.20;68.05
11952;BME280;6036;41.840;23.486;2022-07-09T04:06:11;90321.16;;;19.25;68.17
11952;BME280;6036;41.840;23.486;2022-07-09T04:08:36;90326.03;;;19.40;67.40
11952;BME280;6036;41.840;23.486;2022-07-09T04:11:02;90333.59;;;19.38;67.26
11952;BME280;6036;41.840;23.486;2022-07-09T04:13:28;90331.66;;;19.50;66.53
11952;BME280;6036;41.840;23.486;2022-07-09T04:15:53;90336.91;;;19.60;65.86
11952;BME280;6036;41.840;23.486;2022-07-09T04:18:19;90329.06;;;19.39;66.49
11952;BME280;6036;41.840;23.486;2022-07-09T04:20:44;90329.84;;;19.32;67.39
11952;BME280;6036;41.840;23.486;2022-07-09T04:23:10;90320.63;;;19.51;66.58
11952;BME280;6036;41.840;23.486;2022-07-09T04:25:35;90329.25;;;19.69;65.42
11952;BME280;6036;41.840;23.486;2022-07-09T04:28:01;90322.91;;;19.53;65.65
11952;BME280;6036;41.840;23.486;2022-07-09T04:30:27;90321.69;;;19.61;65.89
11952;BME280;6036;41.840;23.486;2022-07-09T04:32:53;90321.75;;;19.54;65.83
11952;BME280;6036;41.840;23.486;2022-07-09T04:35:18;90326.31;;;19.53;65.99
11952;BME280;6036;41.840;23.486;2022-07-09T04:37:44;90326.59;;;19.69;65.42
11952;BME280;6036;41.840;23.486;2022-07-09T04:40:10;90329.13;;;19.21;66.12
11952;BME280;6036;41.840;23.486;2022-07-09T04:42:35;90327.28;;;19.15;67.01
11952;BME280;6036;41.840;23.486;2022-07-09T04:45:01;90323.50;;;19.12;66.85
11952;BME280;6036;41.840;23.486;2022-07-09T04:47:27;90325.34;;;19.22;66.36
11952;BME280;6036;41.840;23.486;2022-07-09T04:49:52;90323.91;;;19.04;66.83
11952;BME280;6036;41.840;23.486;2022-07-09T04:52:18;90319.19;;;19.36;66.25
11952;BME280;6036;41.840;23.486;2022-07-09T04:54:45;90318.22;;;19.71;64.88
11952;BME280;6036;41.840;23.486;2022-07-09T04:57:12;90324.59;;;19.22;65.67
11952;BME280;6036;41.840;23.486;2022-07-09T04:59:37;90323.13;;;19.10;65.51
11952;BME280;6036;41.840;23.486;2022-07-09T05:02:03;90319.19;;;19.36;65.41
11952;BME280;6036;41.840;23.486;2022-07-09T05:04:28;90315.13;;;19.79;64.14
11952;BME280;6036;41.840;23.486;2022-07-09T05:06:53;90320.38;;;19.90;63.68
11952;BME280;6036;41.840;23.486;2022-07-09T05:09:19;90318.09;;;19.88;63.99
11952;BME280;6036;41.840;23.486;2022-07-09T05:11:44;90324.97;;;19.82;64.05
11952;BME280;6036;41.840;23.486;2022-07-09T05:14:10;90316.91;;;19.93;63.67
11952;BME280;6036;41.840;23.486;2022-07-09T05:16:36;90313.41;;;20.03;64.35
11952;BME280;6036;41.840;23.486;2022-07-09T05:19:01;90315.28;;;20.02;64.49
11952;BME280;6036;41.840;23.486;2022-07-09T05:21:27;90314.38;;;19.79;64.26
11952;BME280;6036;41.840;23.486;2022-07-09T05:23:52;90316.59;;;19.87;64.84
11952;BME280;6036;41.840;23.486;2022-07-09T05:26:18;90318.56;;;20.17;63.41
11952;BME280;6036;41.840;23.486;2022-07-09T05:28:43;90323.88;;;20.24;63.62
11952;BME280;6036;41.840;23.486;2022-07-09T05:31:08;90317.63;;;19.45;67.80
11952;BME280;6036;41.840;23.486;2022-07-09T05:33:34;90313.25;;;19.73;67.68
11952;BME280;6036;41.840;23.486;2022-07-09T05:35:59;90317.50;;;20.11;65.69
11952;BME280;6036;41.840;23.486;2022-07-09T05:38:25;90312.31;;;19.45;66.82
11952;BME280;6036;41.840;23.486;2022-07-09T05:40:50;90318.88;;;19.27;67.86
11952;BME280;6036;41.840;23.486;2022-07-09T05:43:16;90317.50;;;19.67;66.76
11952;BME280;6036;41.840;23.486;2022-07-09T05:45:42;90327.34;;;19.66;68.64
11952;BME280;6036;41.840;23.486;2022-07-09T05:48:07;90320.38;;;19.90;69.87
11952;BME280;6036;41.840;23.486;2022-07-09T05:50:32;90315.91;;;20.17;68.85
11952;BME280;6036;41.840;23.486;2022-07-09T05:52:58;90310.91;;;20.30;68.20
11952;BME280;6036;41.840;23.486;2022-07-09T05:55:23;90318.66;;;20.10;68.04
11952;BME280;6036;41.840;23.486;2022-07-09T05:57:49;90309.53;;;20.11;66.73
11952;BME280;6036;41.840;23.486;2022-07-09T06:00:15;90309.53;;;20.11;65.81
11952;BME280;6036;41.840;23.486;2022-07-09T06:02:40;90311.66;;;20.30;66.05
11952;BME280;6036;41.840;23.486;2022-07-09T06:05:06;90306.75;;;20.66;65.09
11952;BME280;6036;41.840;23.486;2022-07-09T06:07:31;90308.94;;;21.05;64.21
11952;BME280;6036;41.840;23.486;2022-07-09T06:09:57;90304.75;;;21.04;61.47
11952;BME280;6036;41.840;23.486;2022-07-09T06:12:22;90306.09;;;21.19;61.48
11952;BME280;6036;41.840;23.486;2022-07-09T06:14:48;90297.28;;;21.52;60.66
11952;BME280;6036;41.840;23.486;2022-07-09T06:17:13;90295.94;;;21.67;60.27
11952;BME280;6036;41.840;23.486;2022-07-09T06:19:39;90303.59;;;21.88;59.14
11952;BME280;6036;41.840;23.486;2022-07-09T06:22:04;90301.38;;;21.83;57.81
11952;BME280;6036;41.840;23.486;2022-07-09T06:24:30;90306.69;;;21.87;58.67
11952;BME280;6036;41.840;23.486;2022-07-09T06:26:56;90303.28;;;21.83;57.58
11952;BME280;6036;41.840;23.486;2022-07-09T06:29:21;90302.50;;;21.59;58.97
11952;BME280;6036;41.840;23.486;2022-07-09T06:31:47;90308.59;;;21.86;58.37
11952;BME280;6036;41.840;23.486;2022-07-09T06:34:12;90299.25;;;20.88;60.13
11952;BME280;6036;41.840;23.486;2022-07-09T06:36:39;90299.06;;;21.05;60.50
11952;BME280;6036;41.840;23.486;2022-07-09T06:39:05;90300.88;;;21.12;59.38
11952;BME280;6036;41.840;23.486;2022-07-09T06:41:49;90302.63;;;20.92;60.70
11952;BME280;6036;41.840;23.486;2022-07-09T06:44:14;90296.41;;;21.02;60.33
11952;BME280;6036;41.840;23.486;2022-07-09T06:46:40;90300.94;;;21.05;59.83
11952;BME280;6036;41.840;23.486;2022-07-09T06:49:05;90300.25;;;20.33;62.19
11952;BME280;6036;41.840;23.486;2022-07-09T06:51:31;90301.97;;;20.09;63.41
11952;BME280;6036;41.840;23.486;2022-07-09T06:53:57;90297.69;;;19.78;64.76
11952;BME280;6036;41.840;23.486;2022-07-09T06:56:22;90301.50;;;20.18;63.93
11952;BME280;6036;41.840;23.486;2022-07-09T06:58:48;90300.91;;;20.00;63.12
11952;BME280;6036;41.840;23.486;2022-07-09T07:01:13;90299.13;;;19.86;64.03
11952;BME280;6036;41.840;23.486;2022-07-09T07:03:39;90289.56;;;19.96;63.46
11952;BME280;6036;41.840;23.486;2022-07-09T07:06:04;90300.72;;;20.21;62.96
11952;BME280;6036;41.840;23.486;2022-07-09T07:08:30;90291.66;;;20.15;62.86
11952;BME280;6036;41.840;23.486;2022-07-09T07:10:55;90288.25;;;20.52;61.12
11952;BME280;6036;41.840;23.486;2022-07-09T07:13:39;90292.97;;;20.37;61.49
11952;BME280;6036;41.840;23.486;2022-07-09T07:16:05;90290.13;;;19.73;63.04
11952;BME280;6036;41.840;23.486;2022-07-09T07:18:31;90291.50;;;19.92;62.58
11952;BME280;6036;41.840;23.486;2022-07-09T07:20:56;90287.59;;;20.03;63.27
11952;BME280;6036;41.840;23.486;2022-07-09T07:23:21;90287.25;;;20.01;63.52
11952;BME280;6036;41.840;23.486;2022-07-09T07:25:47;90280.94;;;19.85;63.85
11952;BME280;6036;41.840;23.486;2022-07-09T07:28:13;90285.81;;;20.34;61.95
11952;BME280;6036;41.840;23.486;2022-07-09T07:30:38;90284.22;;;20.40;61.47
11952;BME280;6036;41.840;23.486;2022-07-09T07:33:04;90287.00;;;20.63;59.71
11952;BME280;6036;41.840;23.486;2022-07-09T07:35:29;90287.97;;;21.10;58.19
11952;BME280;6036;41.840;23.486;2022-07-09T07:37:55;90288.50;;;21.55;56.75
11952;BME280;6036;41.840;23.486;2022-07-09T07:40:22;90282.22;;;21.42;56.08
11952;BME280;6036;41.840;23.486;2022-07-09T07:42:48;90286.13;;;21.04;57.21
11952;BME280;6036;41.840;23.486;2022-07-09T07:45:13;90283.16;;;21.28;56.72
11952;BME280;6036;41.840;23.486;2022-07-09T07:47:39;90276.91;;;20.82;58.13
11952;BME280;6036;41.840;23.486;2022-07-09T07:50:04;90287.03;;;21.24;57.31
11952;BME280;6036;41.840;23.486;2022-07-09T07:52:31;90284.44;;;21.47;57.44
11952;BME280;6036;41.840;23.486;2022-07-09T07:54:56;90285.69;;;21.39;56.57
11952;BME280;6036;41.840;23.486;2022-07-09T07:57:21;90280.00;;;21.37;56.73
11952;BME280;6036;41.840;23.486;2022-07-09T07:59:47;90284.34;;;21.51;57.16
11952;BME280;6036;41.840;23.486;2022-07-09T08:02:13;90283.00;;;21.66;56.72
11952;BME280;6036;41.840;23.486;2022-07-09T08:04:40;90287.97;;;21.64;56.75
11952;BME280;6036;41.840;23.486;2022-07-09T08:07:05;90285.03;;;21.85;54.59
11952;BME280;6036;41.840;23.486;2022-07-09T08:09:32;90291.91;;;22.06;55.30
11952;BME280;6036;41.840;23.486;2022-07-09T08:11:58;90282.88;;;21.73;56.47
11952;BME280;6036;41.840;23.486;2022-07-09T08:14:24;90286.25;;;21.77;57.30
11952;BME280;6036;41.840;23.486;2022-07-09T08:16:49;90278.31;;;21.50;57.64
11952;BME280;6036;41.840;23.486;2022-07-09T08:19:15;90284.56;;;21.36;58.49
11952;BME280;6036;41.840;23.486;2022-07-09T08:21:41;90284.63;;;21.86;57.37
11952;BME280;6036;41.840;23.486;2022-07-09T08:24:06;90279.84;;;21.97;56.04
11952;BME280;6036;41.840;23.486;2022-07-09T08:26:32;90285.13;;;22.01;56.26
11952;BME280;6036;41.840;23.486;2022-07-09T08:28:58;90284.75;;;22.22;54.83
11952;BME280;6036;41.840;23.486;2022-07-09T08:31:23;90283.44;;;22.34;54.22
11952;BME280;6036;41.840;23.486;2022-07-09T08:33:49;90286.78;;;22.15;53.95
11952;BME280;6036;41.840;23.486;2022-07-09T08:36:16;90286.13;;;22.11;54.53
11952;BME280;6036;41.840;23.486;2022-07-09T08:38:42;90284.38;;;22.00;53.89
11952;BME280;6036;41.840;23.486;2022-07-09T08:41:08;90287.16;;;22.17;54.78
11952;BME280;6036;41.840;23.486;2022-07-09T08:43:34;90286.56;;;22.06;54.04
11952;BME280;6036;41.840;23.486;2022-07-09T08:46:00;90294.13;;;22.53;53.81
11952;BME280;6036;41.840;23.486;2022-07-09T08:48:26;90292.50;;;22.17;53.76
11952;BME280;6036;41.840;23.486;2022-07-09T08:50:52;90289.56;;;21.84;54.34
11952;BME280;6036;41.840;23.486;2022-07-09T08:53:18;90282.91;;;21.46;55.56
11952;BME280;6036;41.840;23.486;2022-07-09T08:55:45;90281.78;;;21.47;55.28
11952;BME280;6036;41.840;23.486;2022-07-09T08:58:14;90288.63;;;21.71;56.44
11952;BME280;6036;41.840;23.486;2022-07-09T09:00:42;90290.97;;;21.92;54.16
11952;BME280;6036;41.840;23.486;2022-07-09T09:03:08;90291.34;;;21.94;53.86
11952;BME280;6036;41.840;23.486;2022-07-09T09:05:33;90293.25;;;21.67;54.68
11952;BME280;6036;41.840;23.486;2022-07-09T09:07:59;90286.56;;;21.56;55.61
11952;BME280;6036;41.840;23.486;2022-07-09T09:10:26;90288.31;;;21.92;54.13
11952;BME280;6036;41.840;23.486;2022-07-09T09:12:56;90291.97;;;22.02;52.92
11952;BME280;6036;41.840;23.486;2022-07-09T09:15:22;90292.59;;;21.86;54.13
11952;BME280;6036;41.840;23.486;2022-07-09T09:17:48;90289.47;;;21.91;56.17
11952;BME280;6036;41.840;23.486;2022-07-09T09:20:15;90296.75;;;21.87;56.13
11952;BME280;6036;41.840;23.486;2022-07-09T09:22:51;90297.06;;;22.16;55.30
11952;BME280;6036;41.840;23.486;2022-07-09T09:25:25;90297.59;;;22.08;57.67
11952;BME280;6036;41.840;23.486;2022-07-09T09:27:52;90306.97;;;22.39;56.75
11952;BME280;6036;41.840;23.486;2022-07-09T09:30:17;90309.25;;;22.37;56.91
11952;BME280;6036;41.840;23.486;2022-07-09T09:32:43;90307.44;;;22.34;55.78
11952;BME280;6036;41.840;23.486;2022-07-09T09:35:08;90310.69;;;21.98;56.65
11952;BME280;6036;41.840;23.486;2022-07-09T09:37:34;90309.88;;;22.01;56.80
11952;BME280;6036;41.840;23.486;2022-07-09T09:40:08;90307.88;;;21.82;57.31
11952;BME280;6036;41.840;23.486;2022-07-09T09:42:40;90309.47;;;22.03;57.19
11952;BME280;6036;41.840;23.486;2022-07-09T09:45:11;90312.53;;;22.01;56.74
11952;BME280;6036;41.840;23.486;2022-07-09T09:47:38;90300.78;;;21.99;56.88
11952;BME280;6036;41.840;23.486;2022-07-09T09:50:04;90311.88;;;22.17;56.07
11952;BME280;6036;41.840;23.486;2022-07-09T09:52:32;90305.91;;;22.33;56.02
11952;BME280;6036;41.840;23.486;2022-07-09T09:54:58;90312.53;;;22.25;56.46
11952;BME280;6036;41.840;23.486;2022-07-09T09:57:25;90314.16;;;21.95;55.19
11952;BME280;6036;41.840;23.486;2022-07-09T09:59:53;90310.13;;;21.84;55.46
11952;BME280;6036;41.840;23.486;2022-07-09T10:02:19;90304.41;;;21.85;55.99
11952;BME280;6036;41.840;23.486;2022-07-09T10:04:46;90306.63;;;21.90;56.26
11952;BME280;6036;41.840;23.486;2022-07-09T10:07:13;90306.63;;;21.90;56.24
11952;BME280;6036;41.840;23.486;2022-07-09T10:09:39;90307.13;;;22.05;55.89
11952;BME280;6036;41.840;23.486;2022-07-09T10:12:05;90305.44;;;22.15;54.81
11952;BME280;6036;41.840;23.486;2022-07-09T10:14:33;90298.63;;;21.90;55.20
11952;BME280;6036;41.840;23.486;2022-07-09T10:17:14;90296.63;;;21.71;55.66
11952;BME280;6036;41.840;23.486;2022-07-09T10:20:03;90298.13;;;21.72;55.90
11952;BME280;6036;41.840;23.486;2022-07-09T10:25:01;90290.94;;;21.16;56.90
11952;BME280;6036;41.840;23.486;2022-07-09T10:27:26;90294.22;;;21.27;56.27
11952;BME280;6036;41.840;23.486;2022-07-09T10:29:54;90297.66;;;21.51;55.71
11952;BME280;6036;41.840;23.486;2022-07-09T10:32:30;90299.09;;;21.32;56.36
11952;BME280;6036;41.840;23.486;2022-07-09T10:37:42;90286.88;;;21.08;56.58
11952;BME280;6036;41.840;23.486;2022-07-09T10:40:09;90295.66;;;21.01;56.75
11952;BME280;6036;41.840;23.486;2022-07-09T10:42:35;90300.63;;;21.33;56.50
11952;BME280;6036;41.840;23.486;2022-07-09T10:45:01;90291.31;;;21.45;55.57
11952;BME280;6036;41.840;23.486;2022-07-09T10:47:37;90288.31;;;21.43;55.62
11952;BME280;6036;41.840;23.486;2022-07-09T10:50:06;90293.78;;;21.32;56.10
11952;BME280;6036;41.840;23.486;2022-07-09T10:52:33;90290.56;;;21.44;55.40
11952;BME280;6036;41.840;23.486;2022-07-09T10:54:59;90299.78;;;21.36;55.13
11952;BME280;6036;41.840;23.486;2022-07-09T10:57:24;90288.53;;;21.25;55.80
11952;BME280;6036;41.840;23.486;2022-07-09T10:59:50;90296.44;;;21.32;55.71
11952;BME280;6036;41.840;23.486;2022-07-09T11:02:22;90297.56;;;21.31;56.93
11952;BME280;6036;41.840;23.486;2022-07-09T11:04:49;90295.28;;;21.83;55.41
11952;BME280;6036;41.840;23.486;2022-07-09T11:07:23;90289.66;;;22.04;55.15
11952;BME280;6036;41.840;23.486;2022-07-09T11:09:49;90294.31;;;21.47;55.54
11952;BME280;6036;41.840;23.486;2022-07-09T11:12:19;90296.91;;;21.77;55.68
11952;BME280;6036;41.840;23.486;2022-07-09T11:14:49;90292.41;;;21.47;56.79
11952;BME280;6036;41.840;23.486;2022-07-09T11:17:16;90289.22;;;21.82;54.68
11952;BME280;6036;41.840;23.486;2022-07-09T11:19:42;90291.69;;;21.96;54.13
11952;BME280;6036;41.840;23.486;2022-07-09T11:22:08;90281.19;;;22.09;53.21
11952;BME280;6036;41.840;23.486;2022-07-09T11:24:33;90286.97;;;21.54;54.55
11952;BME280;6036;41.840;23.486;2022-07-09T11:27:05;90287.28;;;21.03;55.64
11952;BME280;6036;41.840;23.486;2022-07-09T11:29:32;90273.66;;;21.01;55.29
11952;BME280;6036;41.840;23.486;2022-07-09T11:31:57;90287.84;;;21.48;54.36
11952;BME280;6036;41.840;23.486;2022-07-09T11:34:23;90285.03;;;21.81;53.37
11952;BME280;6036;41.840;23.486;2022-07-09T11:36:53;90287.94;;;21.67;53.38
11952;BME280;6036;41.840;23.486;2022-07-09T11:39:33;90266.25;;;21.42;53.90
11952;BME280;6036;41.840;23.486;2022-07-09T11:42:02;90268.44;;;21.47;53.36
11952;BME280;6036;41.840;23.486;2022-07-09T11:44:33;90277.03;;;21.31;53.17
11952;BME280;6036;41.840;23.486;2022-07-09T11:49:43;90272.31;;;21.69;52.33
11952;BME280;6036;41.840;23.486;2022-07-09T11:55:05;90278.09;;;22.34;49.82
11952;BME280;6036;41.840;23.486;2022-07-09T11:57:33;90276.69;;;22.49;48.76
11952;BME280;6036;41.840;23.486;2022-07-09T12:00:00;90274.84;;;22.23;48.58
11952;BME280;6036;41.840;23.486;2022-07-09T12:04:54;90270.72;;;21.98;48.31
11952;BME280;6036;41.840;23.486;2022-07-09T12:07:19;90279.56;;;22.15;49.63
11952;BME280;6036;41.840;23.486;2022-07-09T12:09:45;90278.09;;;22.34;49.02
11952;BME280;6036;41.840;23.486;2022-07-09T12:12:10;90267.25;;;22.64;47.35
11952;BME280;6036;41.840;23.486;2022-07-09T12:14:36;90269.41;;;23.28;46.24
11952;BME280;6036;41.840;23.486;2022-07-09T12:17:01;90268.66;;;23.27;42.67
11952;BME280;6036;41.840;23.486;2022-07-09T12:19:27;90266.41;;;23.62;43.33
11952;BME280;6036;41.840;23.486;2022-07-09T12:21:53;90267.31;;;24.04;42.77
11952;BME280;6036;41.840;23.486;2022-07-09T12:24:19;90266.84;;;24.53;42.40
11952;BME280;6036;41.840;23.486;2022-07-09T12:26:44;90273.66;;;24.71;42.38
11952;BME280;6036;41.840;23.486;2022-07-09T12:29:10;90263.47;;;24.66;41.16
11952;BME280;6036;41.840;23.486;2022-07-09T12:31:35;90269.72;;;24.46;41.56
11952;BME280;6036;41.840;23.486;2022-07-09T12:34:03;90264.00;;;25.02;41.33
11952;BME280;6036;41.840;23.486;2022-07-09T12:36:30;90261.97;;;24.93;41.45
11952;BME280;6036;41.840;23.486;2022-07-09T12:38:55;90257.44;;;24.62;43.88
11952;BME280;6036;41.840;23.486;2022-07-09T12:41:21;90256.84;;;24.41;47.50
11952;BME280;6036;41.840;23.486;2022-07-09T12:43:46;90266.97;;;24.79;48.03
11952;BME280;6036;41.840;23.486;2022-07-09T12:46:12;90262.72;;;24.94;47.92
11952;BME280;6036;41.840;23.486;2022-07-09T12:48:37;90258.50;;;24.80;47.16
11952;BME280;6036;41.840;23.486;2022-07-09T12:51:03;90277.03;;;24.58;48.14
11952;BME280;6036;41.840;23.486;2022-07-09T12:53:28;90303.94;;;22.37;52.61
11952;BME280;6036;41.840;23.486;2022-07-09T12:55:53;90323.94;;;21.22;55.75
11952;BME280;6036;41.840;23.486;2022-07-09T12:58:19;90328.97;;;20.45;58.25
11952;BME280;6036;41.840;23.486;2022-07-09T13:00:44;90331.53;;;18.95;61.48
11952;BME280;6036;41.840;23.486;2022-07-09T13:03:10;90351.78;;;18.32;65.64
11952;BME280;6036;41.840;23.486;2022-07-09T13:05:35;90356.34;;;18.10;67.69
11952;BME280;6036;41.840;23.486;2022-07-09T13:08:01;90354.09;;;17.56;68.65